Time;durP1;ratioP1;P1;durP2;ratioP2;P2;SDS_P1;SDS_P2;PMS_P1;PMS_P2;Temp;Humidity;BMP_temperature;BMP_pressure;BME280_temperature;BME280_humidity;BME280_pressure;Samples;Min_cycle;Max_cycle;Signal;HPM_P1;HPM_P2
2022/05/23 00:00:07;;;;;;;1.27;1.20;;;;;;;;;;4989578;28;20496;-73
2022/05/23 00:02:33;;;;;;;1.10;1.10;;;;;;;;;;4989036;28;20452;-72
2022/05/23 00:04:59;;;;;;;1.67;1.40;;;;;;;;;;4990301;28;20452;-73
2022/05/23 00:07:32;;;;;;;1.40;1.40;;;;;;;;;;4990128;28;20544;-72
2022/05/23 00:09:59;;;;;;;1.60;1.60;;;;;;;;;;4990845;28;20468;-72
2022/05/23 00:12:25;;;;;;;1.13;1.13;;;;;;;;;;4991312;28;20576;-72
2022/05/23 00:14:51;;;;;;;1.43;1.43;;;;;;;;;;4991311;28;20524;-72
2022/05/23 00:17:18;;;;;;;1.80;1.70;;;;;;;;;;4990520;28;20436;-72
2022/05/23 00:19:44;;;;;;;1.30;1.30;;;;;;;;;;4988703;28;20607;-72
2022/05/23 00:22:10;;;;;;;2.20;1.47;;;;;;;;;;4991014;28;20528;-72
2022/05/23 00:24:36;;;;;;;1.77;1.67;;;;;;;;;;4990133;28;20496;-72
2022/05/23 00:27:03;;;;;;;5.50;2.40;;;;;;;;;;4991242;28;20908;-72
2022/05/23 00:29:29;;;;;;;1.70;1.60;;;;;;;;;;4990676;28;20591;-72
2022/05/23 00:37:25;;;;;;;6.90;3.37;;;;;;;;;;4990138;28;20444;-73
2022/05/23 00:39:51;;;;;;;7.67;1.97;;;;;;;;;;4990750;28;20513;-72
2022/05/23 00:45:04;;;;;;;3.27;1.93;;;;;;;;;;4990130;28;20436;-72
2022/05/23 00:47:33;;;;;;;1.20;1.20;;;;;;;;;;4990374;28;20429;-72
2022/05/23 00:49:59;;;;;;;6.23;1.40;;;;;;;;;;4988478;28;20477;-73
2022/05/23 00:52:25;;;;;;;2.00;1.10;;;;;;;;;;4990549;28;20425;-72
2022/05/23 00:54:54;;;;;;;1.87;1.40;;;;;;;;;;4989153;28;20491;-72
2022/05/23 00:57:23;;;;;;;3.37;1.63;;;;;;;;;;4989608;28;20714;-72
2022/05/23 00:59:49;;;;;;;1.37;1.37;;;;;;;;;;4987028;28;20473;-72
2022/05/23 01:02:16;;;;;;;1.47;1.47;;;;;;;;;;4989117;28;20437;-72
2022/05/23 01:04:42;;;;;;;5.23;2.63;;;;;;;;;;4988490;28;20433;-72
2022/05/23 01:07:08;;;;;;;1.67;1.57;;;;;;;;;;4990140;28;20929;-73
2022/05/23 01:09:35;;;;;;;1.87;1.80;;;;;;;;;;4987698;28;20492;-72
2022/05/23 01:12:02;;;;;;;1.53;1.43;;;;;;;;;;4989448;28;20902;-72
2022/05/23 01:14:44;;;;;;;2.03;1.73;;;;;;;;;;4989830;28;20433;-72
2022/05/23 01:17:10;;;;;;;2.73;1.80;;;;;;;;;;4987970;28;20425;-72
2022/05/23 01:19:36;;;;;;;5.27;1.90;;;;;;;;;;4986243;28;20477;-71
2022/05/23 01:22:08;;;;;;;2.20;1.30;;;;;;;;;;4988614;28;20531;-73
2022/05/23 01:24:34;;;;;;;1.63;1.60;;;;;;;;;;4988676;28;20441;-72
2022/05/23 01:27:00;;;;;;;1.47;1.47;;;;;;;;;;4989775;28;20971;-72
2022/05/23 01:29:26;;;;;;;1.87;1.63;;;;;;;;;;4987322;28;20391;-72
2022/05/23 01:31:55;;;;;;;1.33;1.33;;;;;;;;;;4989898;28;20440;-72
2022/05/23 01:34:21;;;;;;;1.27;1.27;;;;;;;;;;4987438;28;20528;-72
2022/05/23 01:36:47;;;;;;;1.20;1.20;;;;;;;;;;4984275;28;20872;-73
2022/05/23 01:39:13;;;;;;;1.33;1.33;;;;;;;;;;4988576;28;20429;-72
2022/05/23 01:41:39;;;;;;;1.53;1.43;;;;;;;;;;4987634;28;20429;-72
2022/05/23 01:44:05;;;;;;;1.47;1.47;;;;;;;;;;4986876;28;20500;-72
2022/05/23 01:46:31;;;;;;;1.20;1.20;;;;;;;;;;4988508;28;20433;-72
2022/05/23 01:48:57;;;;;;;2.53;1.40;;;;;;;;;;4988298;28;20441;-72
2022/05/23 01:51:23;;;;;;;1.27;1.27;;;;;;;;;;4989327;28;20499;-72
2022/05/23 01:53:49;;;;;;;2.83;1.13;;;;;;;;;;4988502;28;20534;-72
2022/05/23 01:56:15;;;;;;;1.27;1.17;;;;;;;;;;4988927;28;20428;-72
2022/05/23 02:01:26;;;;;;;2.07;1.00;;;;;;;;;;4988554;28;20968;-73
2022/05/23 02:03:52;;;;;;;1.40;1.30;;;;;;;;;;4986586;28;20471;-72
2022/05/23 02:06:19;;;;;;;2.27;2.07;;;;;;;;;;4988629;28;20463;-72
2022/05/23 02:08:45;;;;;;;1.40;1.40;;;;;;;;;;4988915;28;20464;-72
2022/05/23 02:11:11;;;;;;;1.70;1.40;;;;;;;;;;4989320;28;20484;-72
2022/05/23 02:13:39;;;;;;;1.43;1.30;;;;;;;;;;4988581;28;20951;-72
2022/05/23 02:16:06;;;;;;;1.40;1.40;;;;;;;;;;4988812;28;21193;-72
2022/05/23 02:18:32;;;;;;;1.40;1.40;;;;;;;;;;4986540;28;20720;-72
2022/05/23 02:20:58;;;;;;;2.00;1.43;;;;;;;;;;4988150;28;20480;-73
2022/05/23 02:23:24;;;;;;;1.50;1.50;;;;;;;;;;4987221;28;20422;-72
2022/05/23 02:25:50;;;;;;;1.77;1.67;;;;;;;;;;4987499;28;20567;-72
2022/05/23 02:28:16;;;;;;;1.10;1.10;;;;;;;;;;4986146;28;20815;-72
2022/05/23 02:30:42;;;;;;;4.40;1.63;;;;;;;;;;4984794;28;20447;-72
2022/05/23 02:33:08;;;;;;;1.93;1.10;;;;;;;;;;4988108;28;20437;-72
2022/05/23 02:35:34;;;;;;;1.63;1.13;;;;;;;;;;4986908;28;20447;-72
2022/05/23 02:38:00;;;;;;;2.97;1.80;;;;;;;;;;4986797;28;20436;-72
2022/05/23 02:40:26;;;;;;;1.53;1.43;;;;;;;;;;4988117;28;20488;-72
2022/05/23 02:42:52;;;;;;;1.60;1.60;;;;;;;;;;4988242;28;20433;-72
2022/05/23 02:45:18;;;;;;;6.10;1.53;;;;;;;;;;4989127;28;20433;-72
2022/05/23 02:47:44;;;;;;;1.87;1.77;;;;;;;;;;4989348;28;20432;-72
2022/05/23 02:50:11;;;;;;;2.70;1.43;;;;;;;;;;4987216;28;20480;-72
2022/05/23 02:52:38;;;;;;;1.33;1.33;;;;;;;;;;4989745;28;20429;-72
2022/05/23 02:55:04;;;;;;;6.50;1.40;;;;;;;;;;4988137;28;20500;-72
2022/05/23 02:57:30;;;;;;;7.43;1.63;;;;;;;;;;4988283;28;20451;-72
2022/05/23 02:59:56;;;;;;;4.80;1.63;;;;;;;;;;4987926;28;20490;-72
2022/05/23 03:05:07;;;;;;;1.77;1.67;;;;;;;;;;4991003;28;20499;-72
2022/05/23 03:07:33;;;;;;;4.83;2.10;;;;;;;;;;4991841;28;20428;-72
2022/05/23 03:09:59;;;;;;;1.73;1.47;;;;;;;;;;4988181;28;20500;-72
2022/05/23 03:12:27;;;;;;;1.60;1.60;;;;;;;;;;4988847;28;20844;-72
2022/05/23 03:14:52;;;;;;;5.60;2.07;;;;;;;;;;4991242;28;20917;-72
2022/05/23 03:17:18;;;;;;;1.63;1.63;;;;;;;;;;4988098;28;20436;-72
2022/05/23 03:19:44;;;;;;;2.80;1.43;;;;;;;;;;4990686;28;21026;-72
2022/05/23 03:27:43;;;;;;;2.20;1.40;;;;;;;;;;4988927;28;20495;-72
2022/05/23 03:30:09;;;;;;;4.80;1.30;;;;;;;;;;4989948;28;20476;-72
2022/05/23 03:32:35;;;;;;;1.30;1.20;;;;;;;;;;4989981;28;20433;-72
2022/05/23 03:35:02;;;;;;;2.67;1.37;;;;;;;;;;4988633;28;20431;-73
2022/05/23 03:37:28;;;;;;;2.00;1.90;;;;;;;;;;4988649;28;20994;-72
2022/05/23 03:39:54;;;;;;;1.63;1.63;;;;;;;;;;4991617;28;20476;-72
2022/05/23 03:42:20;;;;;;;2.00;1.90;;;;;;;;;;4987694;28;20433;-72
2022/05/23 03:44:46;;;;;;;3.63;1.63;;;;;;;;;;4989784;28;20513;-72
2022/05/23 03:47:12;;;;;;;1.70;1.70;;;;;;;;;;4989367;28;20521;-72
2022/05/23 03:49:38;;;;;;;1.27;1.27;;;;;;;;;;4988398;28;20992;-73
2022/05/23 03:52:05;;;;;;;2.07;1.87;;;;;;;;;;4987332;28;20539;-72
2022/05/23 03:54:31;;;;;;;1.60;1.50;;;;;;;;;;4990232;28;20813;-72
2022/05/23 03:56:58;;;;;;;6.13;2.57;;;;;;;;;;4988566;28;20448;-73
2022/05/23 03:59:24;;;;;;;2.23;2.00;;;;;;;;;;4988446;28;20520;-72
2022/05/23 04:01:52;;;;;;;3.80;2.23;;;;;;;;;;4990877;28;20793;-73
2022/05/23 04:04:18;;;;;;;2.03;1.90;;;;;;;;;;4985478;28;20448;-72
2022/05/23 04:06:44;;;;;;;3.70;1.83;;;;;;;;;;4990723;28;20829;-73
2022/05/23 04:09:10;;;;;;;2.10;2.00;;;;;;;;;;4983574;28;20523;-72
2022/05/23 04:11:36;;;;;;;1.70;1.70;;;;;;;;;;4989642;28;20484;-72
2022/05/23 04:14:02;;;;;;;1.77;1.77;;;;;;;;;;4991001;28;20560;-72
2022/05/23 04:16:29;;;;;;;4.00;1.60;;;;;;;;;;4989994;28;20437;-73
2022/05/23 04:18:55;;;;;;;3.40;2.13;;;;;;;;;;4990626;28;20480;-72
2022/05/23 04:21:21;;;;;;;1.97;1.87;;;;;;;;;;4989628;28;20485;-73
2022/05/23 04:23:47;;;;;;;2.43;2.33;;;;;;;;;;4990484;28;20439;-73
2022/05/23 04:26:13;;;;;;;2.13;1.90;;;;;;;;;;4990979;28;20464;-73
2022/05/23 04:28:39;;;;;;;5.80;1.80;;;;;;;;;;4990745;28;20471;-72
2022/05/23 04:31:06;;;;;;;1.90;1.80;;;;;;;;;;4984418;28;20437;-72
2022/05/23 04:36:17;;;;;;;3.97;1.67;;;;;;;;;;4988538;28;20944;-72
2022/05/23 04:38:43;;;;;;;2.00;1.53;;;;;;;;;;4988038;28;20444;-72
2022/05/23 04:41:09;;;;;;;2.00;1.77;;;;;;;;;;4988539;28;21039;-72
2022/05/23 04:43:35;;;;;;;5.20;3.00;;;;;;;;;;4989382;28;20996;-72
2022/05/23 04:46:01;;;;;;;4.97;2.73;;;;;;;;;;4989675;28;20468;-72
2022/05/23 04:51:12;;;;;;;3.90;2.17;;;;;;;;;;4989872;28;20623;-72
2022/05/23 04:53:38;;;;;;;3.17;2.50;;;;;;;;;;4990341;28;20937;-72
2022/05/23 04:56:04;;;;;;;2.43;2.30;;;;;;;;;;4988975;28;20529;-72
2022/05/23 04:58:30;;;;;;;4.33;1.93;;;;;;;;;;4989862;28;20941;-72
2022/05/23 05:00:56;;;;;;;2.27;2.20;;;;;;;;;;4986146;28;20492;-72
2022/05/23 05:03:22;;;;;;;2.50;2.40;;;;;;;;;;4986998;28;20468;-72
2022/05/23 05:05:48;;;;;;;18.40;2.33;;;;;;;;;;4987070;28;20436;-72
2022/05/23 05:08:15;;;;;;;2.07;1.90;;;;;;;;;;4989186;28;20425;-72
2022/05/23 05:10:41;;;;;;;4.20;2.40;;;;;;;;;;4986933;28;20527;-72
2022/05/23 05:13:08;;;;;;;2.87;1.90;;;;;;;;;;4987147;28;20440;-72
2022/05/23 05:15:35;;;;;;;1.93;1.83;;;;;;;;;;4989397;28;20469;-72
2022/05/23 05:18:01;;;;;;;7.33;2.60;;;;;;;;;;4988262;28;20432;-72
2022/05/23 05:20:28;;;;;;;2.97;1.77;;;;;;;;;;4988721;28;20488;-73
2022/05/23 05:22:54;;;;;;;2.10;2.00;;;;;;;;;;4985603;28;20487;-72
2022/05/23 05:25:21;;;;;;;4.07;2.03;;;;;;;;;;4987521;28;20442;-72
2022/05/23 05:27:47;;;;;;;10.30;2.13;;;;;;;;;;4989731;28;20439;-73
2022/05/23 05:30:15;;;;;;;2.63;2.03;;;;;;;;;;4986713;28;20441;-72
2022/05/23 05:32:45;;;;;;;2.40;1.70;;;;;;;;;;4988126;28;20547;-72
2022/05/23 05:35:27;;;;;;;1.70;1.63;;;;;;;;;;4988309;28;20452;-72
2022/05/23 05:37:57;;;;;;;4.37;1.47;;;;;;;;;;4988544;28;20440;-73
2022/05/23 05:40:26;;;;;;;6.47;2.23;;;;;;;;;;4986606;28;20564;-72
2022/05/23 05:42:55;;;;;;;11.60;2.20;;;;;;;;;;4986977;28;20873;-72
2022/05/23 05:45:23;;;;;;;1.93;1.80;;;;;;;;;;4989546;28;20520;-73
2022/05/23 05:47:50;;;;;;;2.25;1.83;;;;;;;;;;4986027;28;20444;-73
2022/05/23 05:50:20;;;;;;;12.60;5.00;;;;;;;;;;4985469;28;20221;-72
2022/05/23 05:52:47;;;;;;;2.40;1.70;;;;;;;;;;4988647;28;20602;-73
2022/05/23 05:55:13;;;;;;;4.17;1.60;;;;;;;;;;4988194;28;20805;-73
2022/05/23 05:57:39;;;;;;;1.77;1.77;;;;;;;;;;4983428;28;20428;-73
2022/05/23 06:00:06;;;;;;;1.50;1.50;;;;;;;;;;4983898;28;20485;-75
2022/05/23 06:02:32;;;;;;;1.93;1.70;;;;;;;;;;4984853;28;20524;-73
2022/05/23 06:04:58;;;;;;;2.70;1.73;;;;;;;;;;4988638;28;20520;-74
2022/05/23 06:13:17;;;;;;;3.53;1.67;;;;;;;;;;4963249;28;20426;-73
2022/05/23 06:15:44;;;;;;;1.60;1.60;;;;;;;;;;4967786;28;20446;-73
2022/05/23 06:18:11;;;;;;;2.10;2.00;;;;;;;;;;4972169;28;20471;-72
2022/05/23 06:20:37;;;;;;;1.73;1.63;;;;;;;;;;4984875;28;21021;-72
2022/05/23 06:23:04;;;;;;;2.17;2.00;;;;;;;;;;4982492;28;20437;-73
2022/05/23 06:25:30;;;;;;;2.03;1.80;;;;;;;;;;4984398;28;20440;-73
2022/05/23 06:27:56;;;;;;;2.20;2.00;;;;;;;;;;4989679;28;20959;-72
2022/05/23 06:30:23;;;;;;;10.03;2.00;;;;;;;;;;4984242;28;20425;-73
2022/05/23 06:32:49;;;;;;;1.83;1.80;;;;;;;;;;4984313;28;20448;-73
2022/05/23 06:35:15;;;;;;;2.60;2.40;;;;;;;;;;4987568;28;20440;-72
2022/05/23 06:37:42;;;;;;;2.17;2.10;;;;;;;;;;4990729;28;20433;-72
2022/05/23 06:40:09;;;;;;;2.57;2.13;;;;;;;;;;4990681;28;20997;-72
2022/05/23 06:42:36;;;;;;;1.70;1.70;;;;;;;;;;4992007;28;20446;-73
2022/05/23 06:45:02;;;;;;;2.13;1.93;;;;;;;;;;4990695;28;20565;-73
2022/05/23 06:47:28;;;;;;;2.80;2.70;;;;;;;;;;4992643;28;20524;-73
2022/05/23 06:49:55;;;;;;;9.53;2.70;;;;;;;;;;4992775;28;20567;-73
2022/05/23 06:52:21;;;;;;;5.80;2.50;;;;;;;;;;4991751;28;21412;-73
2022/05/23 06:54:47;;;;;;;3.40;3.10;;;;;;;;;;4990142;28;20567;-73
2022/05/23 06:57:13;;;;;;;3.23;2.93;;;;;;;;;;4992671;28;20820;-73
2022/05/23 06:59:39;;;;;;;3.57;3.20;;;;;;;;;;4992552;28;20472;-73
2022/05/23 07:02:07;;;;;;;5.93;3.37;;;;;;;;;;4988801;28;20884;-73
2022/05/23 07:12:48;;;;;;;4.40;4.10;;;;;;;;;;4990732;28;20921;-73
2022/05/23 07:15:14;;;;;;;6.13;3.17;;;;;;;;;;4988429;28;21132;-74
2022/05/23 07:17:40;;;;;;;2.60;2.40;;;;;;;;;;4987945;28;20447;-73
2022/05/23 07:20:06;;;;;;;4.93;3.13;;;;;;;;;;4990186;28;20834;-73
2022/05/23 07:22:34;;;;;;;2.73;2.47;;;;;;;;;;4987874;28;20450;-72
2022/05/23 07:25:00;;;;;;;6.40;3.07;;;;;;;;;;4983406;28;20436;-72
2022/05/23 07:27:26;;;;;;;2.53;2.33;;;;;;;;;;4989179;28;20819;-72
2022/05/23 07:29:52;;;;;;;2.63;2.63;;;;;;;;;;4992084;28;20944;-73
2022/05/23 07:32:18;;;;;;;3.37;2.43;;;;;;;;;;4990825;28;20457;-73
2022/05/23 07:34:44;;;;;;;4.93;2.70;;;;;;;;;;4991961;28;20479;-73
2022/05/23 07:37:11;;;;;;;2.53;2.47;;;;;;;;;;4991283;28;20433;-74
2022/05/23 07:39:37;;;;;;;2.57;2.47;;;;;;;;;;4992223;28;20492;-73
2022/05/23 07:42:05;;;;;;;8.60;2.47;;;;;;;;;;4991605;28;20457;-73
2022/05/23 07:44:31;;;;;;;5.57;3.67;;;;;;;;;;4990746;28;20448;-73
2022/05/23 07:46:57;;;;;;;7.03;3.23;;;;;;;;;;4991631;28;20429;-73
2022/05/23 07:49:24;;;;;;;6.43;3.13;;;;;;;;;;4991006;28;20793;-73
2022/05/23 07:51:50;;;;;;;3.37;3.27;;;;;;;;;;4990734;28;20448;-73
2022/05/23 08:02:30;;;;;;;2.60;2.33;;;;;;;;;;4991443;28;20520;-73
2022/05/23 08:04:56;;;;;;;3.97;2.73;;;;;;;;;;4991311;28;20433;-73
2022/05/23 08:07:23;;;;;;;3.07;2.87;;;;;;;;;;4992018;28;20436;-74
2022/05/23 08:09:49;;;;;;;4.13;3.17;;;;;;;;;;4990123;28;20508;-73
2022/05/23 08:12:16;;;;;;;2.70;2.60;;;;;;;;;;4989152;28;20429;-74
2022/05/23 08:14:42;;;;;;;6.63;2.63;;;;;;;;;;4990379;28;20477;-73
2022/05/23 08:17:08;;;;;;;3.37;3.07;;;;;;;;;;4991470;28;20437;-74
2022/05/23 08:19:34;;;;;;;3.33;3.03;;;;;;;;;;4990279;28;20473;-73
2022/05/23 08:22:00;;;;;;;10.23;3.40;;;;;;;;;;4986433;28;20441;-73
2022/05/23 08:24:26;;;;;;;4.03;3.13;;;;;;;;;;4989605;28;20437;-73
2022/05/23 08:26:53;;;;;;;5.57;2.73;;;;;;;;;;4984821;28;20488;-73
2022/05/23 08:29:19;;;;;;;3.37;3.10;;;;;;;;;;4985878;28;20477;-73
2022/05/23 08:31:46;;;;;;;9.30;3.30;;;;;;;;;;4986514;28;20433;-73
2022/05/23 08:34:12;;;;;;;6.57;3.00;;;;;;;;;;4990682;28;20437;-74
2022/05/23 08:36:38;;;;;;;5.83;2.90;;;;;;;;;;4989463;28;20437;-73
2022/05/23 08:39:05;;;;;;;2.83;2.73;;;;;;;;;;4990800;28;20444;-73
2022/05/23 08:41:36;;;;;;;3.80;2.47;;;;;;;;;;4987565;28;20558;-73
2022/05/23 08:44:13;;;;;;;5.47;2.80;;;;;;;;;;4989875;28;20421;-73
2022/05/23 08:46:39;;;;;;;1.97;1.87;;;;;;;;;;4989370;28;20441;-73
2022/05/23 08:49:06;;;;;;;2.33;2.23;;;;;;;;;;4987089;28;20429;-72
2022/05/23 08:51:40;;;;;;;3.33;2.87;;;;;;;;;;4988147;28;20229;-73
2022/05/23 08:54:14;;;;;;;7.83;3.67;;;;;;;;;;4990420;28;20487;-73
2022/05/23 08:56:43;;;;;;;3.73;3.43;;;;;;;;;;4987296;28;20801;-72
2022/05/23 08:59:21;;;;;;;3.33;2.83;;;;;;;;;;4989726;28;20437;-73
2022/05/23 09:01:50;;;;;;;2.07;2.07;;;;;;;;;;4982210;28;20956;-72
2022/05/23 09:04:25;;;;;;;4.80;4.37;;;;;;;;;;4989899;28;20437;-72
2022/05/23 09:06:51;;;;;;;3.40;3.30;;;;;;;;;;4989786;28;20440;-73
2022/05/23 09:09:18;;;;;;;4.13;3.40;;;;;;;;;;4988780;28;20430;-72
2022/05/23 09:11:46;;;;;;;8.60;3.33;;;;;;;;;;4989511;28;20795;-72
2022/05/23 09:14:13;;;;;;;5.10;3.00;;;;;;;;;;4983873;28;20445;-72
2022/05/23 09:16:44;;;;;;;10.03;3.60;;;;;;;;;;4988140;28;20478;-72
2022/05/23 09:19:16;;;;;;;8.77;3.80;;;;;;;;;;4986941;28;20854;-73
2022/05/23 09:24:31;;;;;;;7.00;3.00;;;;;;;;;;4989246;28;20496;-73
2022/05/23 09:26:59;;;;;;;4.37;3.07;;;;;;;;;;4986698;28;20468;-73
2022/05/23 09:29:25;;;;;;;5.10;2.80;;;;;;;;;;4990706;28;20776;-73
2022/05/23 09:31:55;;;;;;;5.57;3.07;;;;;;;;;;4989884;28;20457;-73
2022/05/23 09:34:32;;;;;;;3.30;3.20;;;;;;;;;;4990392;28;20433;-73
2022/05/23 09:36:59;;;;;;;7.47;3.03;;;;;;;;;;4987864;28;20444;-73
2022/05/23 09:39:25;;;;;;;13.17;3.80;;;;;;;;;;4986742;28;20532;-73
2022/05/23 09:47:45;;;;;;;4.17;3.80;;;;;;;;;;4984917;28;20452;-73
2022/05/23 09:50:28;;;;;;;3.87;3.57;;;;;;;;;;4985730;28;22046;-73
2022/05/23 09:52:57;;;;;;;4.43;3.17;;;;;;;;;;4983874;28;20433;-72
2022/05/23 09:55:28;;;;;;;4.63;4.23;;;;;;;;;;4986939;28;20451;-72
2022/05/23 09:57:54;;;;;;;8.93;4.13;;;;;;;;;;4986859;28;20498;-73
2022/05/23 10:00:22;;;;;;;8.00;3.97;;;;;;;;;;4983625;28;20539;-73
2022/05/23 10:02:49;;;;;;;4.77;4.30;;;;;;;;;;4987880;28;20465;-73
2022/05/23 10:05:25;;;;;;;4.47;3.93;;;;;;;;;;4989622;28;20417;-73
2022/05/23 10:07:54;;;;;;;7.60;4.43;;;;;;;;;;4987936;28;20440;-72
2022/05/23 10:10:24;;;;;;;6.03;3.83;;;;;;;;;;4988152;28;20424;-73
2022/05/23 10:12:51;;;;;;;9.87;3.90;;;;;;;;;;4993253;28;20533;-73
2022/05/23 10:15:24;;;;;;;3.63;3.43;;;;;;;;;;4987430;28;20940;-73
2022/05/23 10:18:08;;;;;;;10.87;4.20;;;;;;;;;;4988654;28;20446;-73
2022/05/23 10:20:38;;;;;;;3.60;3.30;;;;;;;;;;4990809;28;20488;-73
2022/05/23 10:23:07;;;;;;;6.60;4.50;;;;;;;;;;4993311;28;20457;-72
2022/05/23 10:25:37;;;;;;;5.40;3.40;;;;;;;;;;4991813;28;20444;-76
2022/05/23 10:28:07;;;;;;;4.33;3.83;;;;;;;;;;4990444;28;20429;-74
2022/05/23 10:30:35;;;;;;;5.43;3.90;;;;;;;;;;4989392;28;20430;-71
2022/05/23 10:33:09;;;;;;;8.17;4.70;;;;;;;;;;4991798;28;20177;-73
2022/05/23 10:35:37;;;;;;;6.47;3.47;;;;;;;;;;4992573;28;20824;-74
2022/05/23 10:43:38;;;;;;;9.93;4.60;;;;;;;;;;4992994;28;20534;-71
2022/05/23 10:46:04;;;;;;;7.40;4.77;;;;;;;;;;4990967;28;20425;-71
2022/05/23 10:48:56;;;;;;;8.10;5.50;;;;;;;;;;4991283;28;20433;-74
2022/05/23 10:51:33;;;;;;;7.33;4.77;;;;;;;;;;4991945;28;20835;-73
2022/05/23 10:54:11;;;;;;;5.57;4.80;;;;;;;;;;4993313;28;20431;-72
2022/05/23 10:56:40;;;;;;;9.77;5.90;;;;;;;;;;4991421;28;20429;-73
2022/05/23 10:59:14;;;;;;;11.93;5.23;;;;;;;;;;4990383;28;20429;-73
2022/05/23 11:01:59;;;;;;;7.03;5.33;;;;;;;;;;4985711;28;20515;-72
2022/05/23 11:04:46;;;;;;;5.87;4.80;;;;;;;;;;4990334;28;20498;-73
2022/05/23 11:07:33;;;;;;;7.20;5.30;;;;;;;;;;4992473;28;20475;-73
2022/05/23 11:10:06;;;;;;;7.27;4.50;;;;;;;;;;4992776;28;20433;-73
2022/05/23 11:12:35;;;;;;;10.40;5.87;;;;;;;;;;4990934;28;20437;-72
2022/05/23 11:15:04;;;;;;;7.47;5.07;;;;;;;;;;4991893;28;20913;-72
2022/05/23 11:17:33;;;;;;;9.83;6.20;;;;;;;;;;4988900;28;20459;-72
2022/05/23 11:20:09;;;;;;;14.70;7.30;;;;;;;;;;4990289;28;20464;-73
2022/05/23 11:22:37;;;;;;;10.10;7.70;;;;;;;;;;4988185;28;20937;-73
2022/05/23 11:25:08;;;;;;;8.77;5.90;;;;;;;;;;4992630;28;20420;-72
2022/05/23 11:33:46;;;;;;;17.80;6.47;;;;;;;;;;4990902;28;20432;-73
2022/05/23 11:36:15;;;;;;;10.70;5.93;;;;;;;;;;4988691;28;20444;-72
2022/05/23 11:38:45;;;;;;;16.27;7.20;;;;;;;;;;4990671;28;20790;-73
2022/05/23 11:41:27;;;;;;;10.40;5.37;;;;;;;;;;4989867;28;20531;-74
2022/05/23 11:43:53;;;;;;;6.23;5.53;;;;;;;;;;4988967;28;20503;-73
2022/05/23 11:46:25;;;;;;;7.67;6.00;;;;;;;;;;4987673;28;20492;-75
2022/05/23 11:48:53;;;;;;;7.00;6.30;;;;;;;;;;4989639;28;20520;-72
2022/05/23 11:51:25;;;;;;;11.70;6.80;;;;;;;;;;4991273;28;20469;-73
2022/05/23 11:53:57;;;;;;;10.23;6.23;;;;;;;;;;5006649;28;20938;-74
2022/05/23 11:56:51;;;;;;;7.40;6.27;;;;;;;;;;4988795;28;20839;-73
2022/05/23 11:59:26;;;;;;;17.10;7.00;;;;;;;;;;4975761;28;20452;-73
2022/05/23 12:02:07;;;;;;;6.50;5.97;;;;;;;;;;4988946;28;20471;-73
2022/05/23 12:04:34;;;;;;;10.90;6.43;;;;;;;;;;4982706;28;20475;-73
2022/05/23 12:07:00;;;;;;;10.47;6.83;;;;;;;;;;4987365;28;20421;-75
2022/05/23 12:09:28;;;;;;;6.90;5.30;;;;;;;;;;4985259;28;20453;-73
2022/05/23 12:12:14;;;;;;;7.10;6.07;;;;;;;;;;4987433;28;20422;-74
2022/05/23 12:14:40;;;;;;;5.60;5.20;;;;;;;;;;4987519;28;20503;-73
2022/05/23 12:17:13;;;;;;;6.80;4.83;;;;;;;;;;4986622;28;20433;-73
2022/05/23 12:19:39;;;;;;;6.50;4.70;;;;;;;;;;4987942;28;20213;-73
2022/05/23 12:22:23;;;;;;;5.97;5.50;;;;;;;;;;4985535;28;20862;-74
2022/05/23 12:25:07;;;;;;;5.20;4.80;;;;;;;;;;4988217;28;20190;-74
2022/05/23 12:27:46;;;;;;;12.80;5.00;;;;;;;;;;5022727;28;20766;-74
2022/05/23 12:30:20;;;;;;;8.23;4.03;;;;;;;;;;4988648;28;20452;-75
2022/05/23 12:33:04;;;;;;;8.50;5.03;;;;;;;;;;4981536;28;20495;-73
2022/05/23 12:35:34;;;;;;;4.57;4.37;;;;;;;;;;4986961;28;20444;-73
2022/05/23 12:38:06;;;;;;;8.00;4.83;;;;;;;;;;4986526;28;20529;-73
2022/05/23 12:40:35;;;;;;;4.77;4.27;;;;;;;;;;4989544;28;20939;-75
2022/05/23 12:43:10;;;;;;;6.23;4.20;;;;;;;;;;4988365;28;20435;-73
2022/05/23 12:45:43;;;;;;;13.70;4.30;;;;;;;;;;4989730;28;20441;-74
2022/05/23 12:48:31;;;;;;;11.43;4.67;;;;;;;;;;4990578;28;20944;-75
2022/05/23 12:50:59;;;;;;;4.97;4.27;;;;;;;;;;4977973;28;20489;-74
2022/05/23 12:53:32;;;;;;;3.37;3.00;;;;;;;;;;4985328;28;20437;-74
2022/05/23 12:55:58;;;;;;;3.07;2.83;;;;;;;;;;4987402;28;20519;-75
2022/05/23 12:58:36;;;;;;;3.20;3.07;;;;;;;;;;4987106;28;20912;-76
2022/05/23 13:01:07;;;;;;;2.80;2.50;;;;;;;;;;4986168;28;20224;-74
2022/05/23 13:03:52;;;;;;;13.00;3.10;;;;;;;;;;4985938;28;20456;-73
2022/05/23 13:06:22;;;;;;;4.37;3.00;;;;;;;;;;4989135;28;20436;-73
2022/05/23 13:09:06;;;;;;;11.50;3.10;;;;;;;;;;4988200;28;20430;-74
2022/05/23 13:11:34;;;;;;;2.30;2.20;;;;;;;;;;4988431;28;20436;-75
2022/05/23 13:14:01;;;;;;;4.33;2.77;;;;;;;;;;4989602;28;20453;-73
2022/05/23 13:16:36;;;;;;;3.33;2.90;;;;;;;;;;4987006;28;20473;-74
2022/05/23 13:22:05;;;;;;;3.80;2.60;;;;;;;;;;4987574;28;20526;-74
2022/05/23 13:24:50;;;;;;;6.73;4.60;;;;;;;;;;4988380;28;20436;-73
2022/05/23 13:27:23;;;;;;;9.93;3.60;;;;;;;;;;4989787;28;20442;-74
2022/05/23 13:29:53;;;;;;;4.07;2.40;;;;;;;;;;4989272;28;20463;-76
2022/05/23 13:32:19;;;;;;;3.73;3.23;;;;;;;;;;4986815;28;20608;-73
2022/05/23 13:34:47;;;;;;;9.37;2.97;;;;;;;;;;4988833;28;20532;-72
2022/05/23 13:37:30;;;;;;;5.03;2.10;;;;;;;;;;4988863;28;20531;-74
2022/05/23 13:39:57;;;;;;;6.30;4.17;;;;;;;;;;4987895;28;20564;-74
2022/05/23 13:42:28;;;;;;;5.70;2.80;;;;;;;;;;4988664;28;20512;-74
2022/05/23 13:45:07;;;;;;;9.20;2.87;;;;;;;;;;4987194;28;20514;-73
2022/05/23 13:47:33;;;;;;;15.30;2.50;;;;;;;;;;4987809;28;20441;-75
2022/05/23 13:50:01;;;;;;;3.33;2.13;;;;;;;;;;4987640;28;20992;-74
2022/05/23 13:52:33;;;;;;;7.03;3.13;;;;;;;;;;4986039;28;20453;-74
2022/05/23 13:55:01;;;;;;;13.57;3.90;;;;;;;;;;4985994;28;20495;-74
2022/05/23 13:57:31;;;;;;;4.07;2.87;;;;;;;;;;4986144;28;20492;-75
2022/05/23 14:00:09;;;;;;;8.50;2.57;;;;;;;;;;4988069;28;21025;-75
2022/05/23 14:02:40;;;;;;;4.53;1.90;;;;;;;;;;4988217;28;21260;-73
2022/05/23 14:05:06;;;;;;;9.23;2.50;;;;;;;;;;4989321;28;20444;-75
2022/05/23 14:07:36;;;;;;;8.10;2.17;;;;;;;;;;4989288;28;20804;-74
2022/05/23 14:10:03;;;;;;;3.00;2.40;;;;;;;;;;4989718;28;20421;-75
2022/05/23 14:12:34;;;;;;;6.33;2.13;;;;;;;;;;4987526;28;20476;-73
2022/05/23 14:15:10;;;;;;;3.13;2.10;;;;;;;;;;4988828;28;20948;-74
2022/05/23 14:17:38;;;;;;;3.33;2.00;;;;;;;;;;4982738;28;20532;-73
2022/05/23 14:20:30;;;;;;;3.00;1.90;;;;;;;;;;4987542;28;20505;-75
2022/05/23 14:23:01;;;;;;;8.23;2.40;;;;;;;;;;4986375;28;20468;-75
2022/05/23 14:25:30;;;;;;;3.10;1.90;;;;;;;;;;4988699;28;20581;-75
2022/05/23 14:28:04;;;;;;;1.90;1.80;;;;;;;;;;4982389;28;20504;-75
2022/05/23 14:30:35;;;;;;;3.30;2.87;;;;;;;;;;4982012;28;20499;-74
2022/05/23 14:33:08;;;;;;;9.37;2.20;;;;;;;;;;4982019;28;20686;-76
2022/05/23 14:36:00;;;;;;;7.40;1.83;;;;;;;;;;4989320;28;20425;-73
2022/05/23 14:38:29;;;;;;;2.10;2.00;;;;;;;;;;4978727;28;20927;-73
2022/05/23 14:40:56;;;;;;;4.97;2.10;;;;;;;;;;4982674;28;20481;-74
2022/05/23 14:43:33;;;;;;;16.17;1.67;;;;;;;;;;4975948;28;20495;-74
2022/05/23 14:46:01;;;;;;;6.10;1.77;;;;;;;;;;4979187;28;20933;-74
2022/05/23 14:48:30;;;;;;;1.93;1.83;;;;;;;;;;4980067;28;20436;-73
2022/05/23 14:51:05;;;;;;;3.80;2.30;;;;;;;;;;4983495;28;20504;-73
2022/05/23 14:56:23;;;;;;;8.07;2.20;;;;;;;;;;4985082;28;20904;-73
2022/05/23 15:01:39;;;;;;;7.37;1.70;;;;;;;;;;4982656;28;20584;-73
2022/05/23 15:04:06;;;;;;;3.93;2.20;;;;;;;;;;4990888;28;20437;-73
2022/05/23 15:06:32;;;;;;;2.20;1.47;;;;;;;;;;4988418;28;20579;-72
2022/05/23 15:09:01;;;;;;;2.80;1.77;;;;;;;;;;4981637;28;20529;-73
2022/05/23 15:11:28;;;;;;;4.50;1.50;;;;;;;;;;4987292;28;20453;-73
2022/05/23 15:13:57;;;;;;;15.83;1.47;;;;;;;;;;4977327;28;20425;-73
2022/05/23 15:16:29;;;;;;;4.43;1.10;;;;;;;;;;4989394;28;20448;-73
2022/05/23 15:18:56;;;;;;;11.77;1.40;;;;;;;;;;4988394;28;20996;-73
2022/05/23 15:21:21;;;;;;;9.03;2.30;;;;;;;;;;4989888;28;20797;-73
2022/05/23 15:23:47;;;;;;;3.23;1.20;;;;;;;;;;4984690;28;20444;-72
2022/05/23 15:26:17;;;;;;;5.43;1.30;;;;;;;;;;4991265;28;20436;-73
2022/05/23 15:28:44;;;;;;;6.97;1.50;;;;;;;;;;4988629;28;20433;-73
2022/05/23 15:31:11;;;;;;;2.97;1.87;;;;;;;;;;4987791;28;20956;-71
2022/05/23 15:33:37;;;;;;;3.60;1.73;;;;;;;;;;4977605;28;20885;-72
2022/05/23 15:36:03;;;;;;;1.30;1.30;;;;;;;;;;4977239;28;20445;-74
2022/05/23 15:38:29;;;;;;;1.90;1.27;;;;;;;;;;4989993;28;20487;-73
2022/05/23 15:40:55;;;;;;;1.63;1.53;;;;;;;;;;4986476;28;20487;-74
2022/05/23 15:43:22;;;;;;;8.33;1.60;;;;;;;;;;4990807;28;20437;-74
2022/05/23 15:45:49;;;;;;;2.93;1.50;;;;;;;;;;4989446;28;20801;-75
2022/05/23 15:48:16;;;;;;;6.90;1.80;;;;;;;;;;4990988;28;20456;-74
2022/05/23 15:50:44;;;;;;;2.30;1.93;;;;;;;;;;4990675;28;20514;-75
2022/05/23 15:53:10;;;;;;;3.83;1.50;;;;;;;;;;4990101;28;20437;-74
2022/05/23 15:55:36;;;;;;;21.63;1.90;;;;;;;;;;4990178;28;20437;-74
2022/05/23 15:58:03;;;;;;;23.00;1.50;;;;;;;;;;4991899;28;20446;-75
2022/05/23 16:00:29;;;;;;;4.93;1.50;;;;;;;;;;4989622;28;20929;-74
2022/05/23 16:02:56;;;;;;;3.00;1.30;;;;;;;;;;4990676;28;20436;-74
2022/05/23 16:05:23;;;;;;;3.47;1.40;;;;;;;;;;4991409;28;20496;-75